Nearby METAR Reports

 

KALB - Albany, New York, USA
Distance from station: E 47mi, 75km
Updated: Thu, 19-Jul-2018 4:51pm EDT
Partly cloudy
Partly cloudy
 Wind from varies
Wind: varies 5 mph , 7 km/h
Temperature: 82°F , 28°C
Dew Point: 48°F , 9°C
Humidity: 30%
Barometer: 30.07 inHg , 1018.3 hPa
Clouds: Partly cloudy
Visibility: 10 miles , 16 km
Cloud details: Partly cloudy 25000 ft
2018/07/19 20:51 KALB 192051Z VRB04KT 10SM SCT250 28/09 A3007 RMK AO2 SLP180 T02830089 57012
KSLK - Saranac Lake, New York, USA
Distance from station: N 110mi, 177km
Updated: Thu, 19-Jul-2018 4:51pm EDT
Clear
Clear
 Wind from W
Wind: W 6 mph , 9 km/h
Temperature: 75°F , 24°C
Dew Point: 48°F , 9°C
Humidity: 39%
Barometer: 30.09 inHg , 1019 hPa
Clouds: Clear
Visibility: 10 miles , 16 km
2018/07/19 20:51 KSLK 192051Z AUTO 26005KT 10SM CLR 24/09 A3009 RMK AO2 SLP189 T02440094 58007
 
KSYR - Syracuse, New York, USA
Distance from station: W 73mi, 117km
Updated: Thu, 19-Jul-2018 4:54pm EDT
Few Clouds
Few Clouds
 Wind from ENE
Wind: ENE 8 mph , 13 km/h
Temperature: 81°F , 27°C
Heat Index: 81°F , 27°C
Dew Point: 55°F , 13°C
Humidity: 42%
Barometer: 30.06 inHg , 1017.9 hPa
Clouds: Few Clouds
Visibility: 10 miles , 16 km
Cloud details: Few Clouds 25000 ft
2018/07/19 20:54 KSYR 192054Z 07007KT 10SM FEW250 27/13 A3006 RMK AO2 SLP173 T02670133 58014
KBGM - Binghamton, New York, USA
Distance from station: SW 78mi, 126km
Updated: Thu, 19-Jul-2018 4:53pm EDT
Clear
Clear
 Wind from varies
Wind: varies 3 mph , 6 km/h
Temperature: 75°F , 24°C
Dew Point: 43°F , 6°C
Humidity: 31%
Barometer: 30.12 inHg , 1020 hPa
Clouds: Clear
Visibility: 10 miles , 16 km
2018/07/19 20:53 KBGM 192053Z VRB03KT 10SM CLR 24/06 A3012 RMK AO2 SLP194 T02390061 56009
 
KRME - Rome, New York, USA
Distance from station: WNW 43mi, 69km
Updated: Thu, 19-Jul-2018 4:53pm EDT
Clear
Clear
 Wind from S
Wind: S 5 mph , 7 km/h
Temperature: 81°F , 27°C
Dew Point: 52°F , 11°C
Humidity: 37%
Barometer: 30.09 inHg , 1019 hPa
Clouds: Clear
Visibility: 10 miles , 16 km
2018/07/19 20:53 KRME 192053Z 19004KT 10SM CLR 27/11 A3009 RMK AO2 SLP187 T02670106 57012
KJFK - New York, New York, USA
Distance from station: SSE 159mi, 256km
Updated: Thu, 19-Jul-2018 4:51pm EDT
Few Clouds
Few Clouds
 Wind from S
Wind: S 12 mph , 19 km/h
Temperature: 79°F , 26°C
Dew Point: 55°F , 13°C
Humidity: 45%
Barometer: 30.09 inHg , 1019 hPa
Clouds: Few Clouds
Visibility: 10 miles , 16 km
Cloud details: Few Clouds 6000 ft
Few Clouds 25000 ft
2018/07/19 20:51 KJFK 192051Z 18010KT 10SM FEW060 FEW250 26/13 A3009 RMK AO2 SLP189 T02560128 58003
 
KROC - Rochester, New York, USA
Distance from station: W 150mi, 242km
Updated: Thu, 19-Jul-2018 4:54pm EDT
Partly cloudy
Partly cloudy
 Wind from W
Wind: W 7 mph , 11 km/h
Temperature: 84°F , 29°C
Dew Point: 54°F , 12°C
Humidity: 35%
Barometer: 30.06 inHg , 1017.9 hPa
Clouds: Partly cloudy
Visibility: 10 miles , 16 km
Cloud details: Partly cloudy 6000 ft
Partly cloudy 18000 ft
2018/07/19 20:54 KROC 192054Z 28006KT 10SM SCT060 SCT180 29/12 A3006 RMK AO2 SLP178 T02890117 58012
KART - Watertown, New York, USA
Distance from station: NNW 103mi, 166km
Updated: Thu, 19-Jul-2018 4:56pm EDT
Clear
Clear
 Wind from W
Wind: W 9 mph , 15 km/h
Temperature: 79°F , 26°C
Dew Point: 48°F , 9°C
Humidity: 34%
Barometer: 30.08 inHg , 1018.6 hPa
Clouds: Clear
Visibility: 10 miles , 16 km
2018/07/19 20:56 KART 192056Z AUTO 26008KT 10SM CLR 26/09 A3008 RMK AO2 SLP181 T02610094 56009
 
KELM - Elmira-Corning, New York, USA
Distance from station: SSW 121mi, 195km
Updated: Thu, 19-Jul-2018 4:53pm EDT
Clear
Clear
 Wind from calm
Wind: Calm
Temperature: 79°F , 26°C
Dew Point: 48°F , 9°C
Humidity: 34%
Barometer: 30.08 inHg , 1018.6 hPa
Clouds: Clear
Visibility: 10 miles , 16 km
2018/07/19 20:53 KELM 192053Z 00000KT 10SM CLR 26/09 A3008 RMK AO2 SLP183 T02610094 56014
KJHW - Jamestown, New York, USA
Distance from station: SW 238mi, 383km
Updated: Thu, 19-Jul-2018 4:56pm EDT
Clear
Clear
 Wind from varies
Wind: varies 3 mph , 6 km/h
Temperature: 77°F , 25°C
Dew Point: 54°F , 12°C
Humidity: 44%
Barometer: 30.10 inHg , 1019.3 hPa
Clouds: Clear
Visibility: 10 miles , 16 km
2018/07/19 20:56 KJHW 192056Z AUTO VRB03KT 10SM CLR 25/12 A3010 RMK AO2 SLP191 T02500122 56013
 
KMSS - Massena, New York, USA
Distance from station: N 141mi, 232km
Updated: Thu, 19-Jul-2018 4:53pm EDT
Clear
Clear
 Wind from SW
Wind: SW 13 mph , 20 km/h
Temperature: 82°F , 28°C
Dew Point: 54°F , 12°C
Humidity: 37%
Barometer: 30.05 inHg , 1017.6 hPa
Clouds: Clear
Visibility: 10 miles , 16 km
2018/07/19 20:53 KMSS 192053Z AUTO 23011KT 10SM CLR 28/12 A3005 RMK AO2 SLP175 T02780122 56009
KBUF - Buffalo, New York, USA
Distance from station: W 204mi, 328km
Updated: Thu, 19-Jul-2018 4:54pm EDT
Few Clouds
Few Clouds
 Wind from calm
Wind: Calm
Temperature: 81°F , 27°C
Dew Point: 50°F , 10°C
Humidity: 34%
Barometer: 30.06 inHg , 1017.9 hPa
Clouds: Few Clouds
Visibility: 10 miles , 16 km
Cloud details: Few Clouds 6000 ft
Few Clouds 29000 ft
2018/07/19 20:54 KBUF 192054Z 00000KT 10SM FEW060 FEW290 27/10 A3006 RMK AO2 SLP175 T02720100 56013